x

8452944 - Conimicut Light, Ri (cptr1) Weather Station

11:30 - Mon 30th Mar 2015 All times are EDT. -4 hours from GMT.

  • Wind
    7mph, 9mph gusts
  • Sea Temp 38°f
  • Aire Temp 37°f
  • Sea Pressure 1008.2mb
  • 8452944 - Conimicut Light, Ri
  • 8452944 - Conimicut Light, Ri

More Historic Weather Station data

Upgrade to MSW Pro to gain access to the past 30 days of data for over 8000 Wavebouys and Weather Stations around the globe.

Join Pro

Comparision Forecast

View Surf forecast
   
lun 03/30 11:30 7 9 mph 1008.2mb 38f 37f
11:24 7 8 mph 1008.2mb 38f 37f
11:18 7 8 mph 1008.2mb 38f 37f
11:12 7 8 mph 1008.2mb 38f 37f
11:06 7 9 mph 1008.3mb 38f 37f
11:00 8 9 mph 1008.3mb 38f 37f
10:54 8 9 mph 1008.3mb 38f 37f
10:48 9
mph
1008.3mb 38f 37f
10:42 9
mph
1008.4mb 38f 37f
10:36 8 10 mph 1008.4mb 38f 38f
10:30 9 10 mph 1008.4mb 38f 38f
10:24 9 10 mph 1008.4mb 38f 38f
10:18 9 10 mph 1008.4mb 38f 38f
10:12 8 9 mph 1008.4mb 38f 38f
10:06 8
mph
1008.4mb 38f 38f
10:00 7
mph
1008.3mb 38f 38f
9:54 8
mph
1008.3mb 38f 40f
9:48 8 9 mph 1008.3mb 38f 40f
9:42 9
mph
1008.3mb 38f 39f
9:36 9 10 mph 1008.2mb 38f 40f
9:30 10 11 mph 1008.2mb 38f 40f
9:24 11 13 mph 1008.2mb 38f 40f
9:18 11
mph
1008.2mb 38f 40f
9:12 10
mph
1008.3mb 38f 39f
9:06 10
mph
1008.2mb 38f 39f
9:00 10
mph
1008.2mb 38f 39f
8:54 9 10 mph 1008.2mb 38f 39f
8:48 9 11 mph 1008.1mb 38f 41f
8:42 10 11 mph 1008.1mb 38f 42f
8:36 10
mph
1008mb 38f 41f
8:30 9
mph
1007.9mb 38f 42f
8:24 9
mph
1007.9mb 38f 42f
8:18 9 10 mph 1007.8mb 38f 42f
8:12 8
mph
1007.7mb 38f 43f
8:06 7 8 mph 1007.6mb 38f 43f
8:00 7 9 mph 1007.6mb 38f 43f
7:54 8 10 mph 1007.5mb 38f 44f
7:48 8 10 mph 1007.3mb 38f 44f
7:42 8 9 mph 1007.3mb 38f 45f
7:36 6 8 mph 1007.2mb 38f 45f
7:30 7 8 mph 1007.1mb 38f 45f
7:24 7 9 mph 1007.1mb 38f 45f
7:18 5 7 mph 1007.1mb 38f 45f
7:12 6 9 mph 1007.1mb 38f 44f
7:06 9 10 mph 1007mb 38f 45f
7:00 10 14 mph 1007mb 38f 45f
6:54 10 14 mph 1007mb 38f 45f
6:48 11 15 mph 1007mb 38f 45f
6:42 11 13 mph 1007mb 38f 45f
6:36 9 10 mph 1007mb 38f 45f
6:30 9 15 mph 1006.9mb 38f 45f
6:24 13 15 mph 1006.9mb 38f 45f
6:18 11 15 mph 1006.8mb 38f 46f
6:12 10 11 mph 1006.8mb 38f 46f
6:06 9 14 mph 1006.7mb 38f 45f
6:00 11 14 mph 1006.7mb 38f 46f
5:54 10 14 mph 1006.6mb 38f 46f
5:48 9 13 mph 1006.6mb 38f 45f
5:42 10 13 mph 1006.6mb 38f 46f
5:36 8 13 mph 1006.6mb 38f 46f
5:30 9 14 mph 1006.5mb 38f 46f
5:24 10 11 mph 1006.5mb 38f 46f
5:18 11 16 mph 1006.5mb 38f 45f
5:12 10 16 mph 1006.5mb 37f 45f
5:06 16 20 mph 1006.5mb 37f 46f
5:00 11 17 mph 1006.6mb 37f 45f
4:54 8 10 mph 1006.6mb 37f 45f
4:48 2 10 mph 1006.6mb 37f 44f
4:42 6 8 mph 1006.7mb 37f 44f
4:36 7 9 mph 1006.7mb 37f 44f
4:30 5 7 mph 1006.8mb 37f 44f
4:24 9 15 mph 1006.9mb 37f 43f
4:18 8 14 mph 1007mb 37f 43f
4:12 9 13 mph 1007mb 37f 42f
4:06 10 15 mph 1007.2mb 37f 42f
4:00 11 14 mph 1007.3mb 37f 41f
3:54 13 16 mph 1007.4mb 37f 41f
3:48 15 17 mph 1007.4mb 37f 40f
3:42 14 18 mph 1007.4mb 37f 40f
3:36 15 21 mph 1007.6mb 37f 40f
3:30 15 18 mph 1007.7mb 37f 40f
3:24 15 17 mph 1007.7mb 37f 40f
3:18 13 18 mph 1007.7mb 37f 40f
3:12 15 20 mph 1007.9mb 37f 40f
3:06 15 18 mph 1007.8mb 37f 39f
3:00 16 21 mph 1007.7mb 37f 40f
2:54 18 22 mph 1007.7mb 37f 39f
2:48 17 21 mph 1007.6mb 37f 39f
2:42 17 22 mph 1007.9mb 37f 40f
2:36 18 21 mph 1007.9mb 37f 40f
2:30 16 20 mph 1007.9mb 37f 40f
2:24 16 20 mph 1008mb 37f 40f
2:18 17 24 mph 1008mb 37f 40f
2:12 15 18 mph 1008mb 37f 39f
2:06 15 17 mph 1007.9mb 37f 39f
2:00 16 18 mph 1008mb 37f 39f
1:54 15 18 mph 1008mb 37f 39f
1:48 15 18 mph 1008.1mb 37f 39f
1:42 17 18 mph 1008.2mb 37f 39f
1:36 16 20 mph 1008.5mb 37f 39f
1:30 15 18 mph 1008.6mb 37f 39f
1:24 15 21 mph 1008.8mb 37f 39f
1:18 16 21 mph 1008.9mb 37f 39f
1:12 18 22 mph 1009mb 37f 39f
1:06 18 23 mph 1008.9mb 37f 39f
1:00 20 25 mph 1009.2mb 37f 39f
12:54 21 26 mph 1009.4mb 37f 39f
12:48 22 26 mph 1009.5mb 37f 39f
12:42 23 25 mph 1009.6mb 37f 39f
12:36 20 25 mph 1009.7mb 37f 39f
12:30 21 26 mph 1009.8mb 37f 39f
12:24 23 30 mph 1009.9mb 37f 39f
12:18 20 26 mph 1010mb 37f 39f
12:12 22 24 mph 1010mb 37f 39f
12:06 21 24 mph 1010.1mb 37f 39f
12:00 21 24 mph 1010.2mb 37f 39f
11:54 22 24 mph 1010.3mb 37f 39f
11:48 18 21 mph 1010.5mb 37f 38f
11:42 20 22 mph 1010.6mb 37f 39f
11:36 17 20 mph 1010.9mb 37f 38f
11:30 18 26 mph 1011mb 37f 38f
11:24 17 20 mph 1011.2mb 37f 38f
11:18 17 21 mph 1011.2mb 37f 38f
11:12 18 21 mph 1011.1mb 37f 38f
11:06 20 22 mph 1011.3mb 37f 38f
11:00 18 21 mph 1011.5mb 37f 38f
10:54 20 23 mph 1011.4mb 37f 38f
10:48 22 25 mph 1011.6mb 37f 38f
10:42 24 26 mph 1011.4mb 37f 38f
10:36 23 26 mph 1011.5mb 37f 38f
10:30 22 24 mph 1011.8mb 37f 38f
10:24 24 28 mph 1011.8mb 37f 38f
10:18 23 26 mph 1011.8mb 37f 38f
10:12 20 25 mph 1011.9mb 37f 38f
10:06 21 26 mph 1012.2mb 37f 38f
10:00 22 28 mph 1012.3mb 37f 38f
9:54 25 31 mph 1012.2mb 37f 38f
9:48 23 28 mph 1012.4mb 37f 38f
9:42 22 28 mph 1012.9mb 37f 38f
9:36 23 28 mph 1012.9mb 37f 38f
9:30 22 25 mph 1013mb 37f 38f
9:24 17 21 mph 1013.1mb 37f 38f
9:18 17 23 mph 1013.1mb 37f 38f
9:12 22 24 mph 1013.1mb 37f 38f
9:06 24 28 mph 1013.3mb 37f 38f
9:00 20 29 mph 1013.3mb 37f 38f
8:54 26 29 mph 1013.3mb 37f 38f
8:48 23 29 mph 1013.1mb 37f 38f
8:42 22 24 mph 1013.1mb 37f 38f
8:36 21 25 mph 1013.1mb 37f 37f
8:30 23 28 mph 1013.2mb 37f 37f
8:24 23 25 mph 1013.3mb 37f 37f
8:18 23 25 mph 1013.4mb 37f 37f
8:12 22 25 mph 1013.5mb 37f 37f
8:06 23 24 mph 1013.5mb 37f 37f
8:00 22 25 mph 1013.6mb 37f 37f
7:54 22 25 mph 1013.6mb 37f 37f
7:48 22 24 mph 1013.8mb 37f 37f
7:42 21 24 mph 1013.9mb 37f 37f
7:36 21 24 mph 1014.1mb 37f 37f
7:30 22 23 mph 1014.3mb 37f 37f
7:24 20 23 mph 1014.3mb 37f 37f
7:18 21 23 mph 1014.4mb 37f 37f
7:12 21 24 mph 1014.5mb 37f 37f
7:06 22 24 mph 1014.5mb 37f 37f
7:00 20 23 mph 1014.4mb 37f 37f
6:54 20 23 mph 1014.4mb 37f 36f
6:48 18 21 mph 1014.7mb 37f 36f
6:42 18 22 mph 1014.9mb 37f 36f
6:36 20 21 mph 1014.9mb 37f 36f
6:30 18 22 mph 1014.9mb 37f 37f
6:24 18 21 mph 1015mb 37f 36f
6:18 16 18 mph 1015.1mb 37f 36f
6:12 16 18 mph 1015.2mb 37f 36f
6:06 16 20 mph 1015.4mb 37f 36f
6:00 17 21 mph 1015.6mb 37f 36f
5:54 18 21 mph 1015.6mb 37f 36f
5:48 18 21 mph 1015.7mb 37f 36f
5:42 20 22 mph 1015.6mb 37f 36f
5:36 17 20 mph 1015.8mb 37f 35f
5:30 17 20 mph 1015.7mb 37f 35f
5:24 13 17 mph 1015.8mb 37f 35f
5:18 15 17 mph 1016.1mb 37f 35f
5:12 14 20 mph 1016.2mb 37f 35f
5:06 14 17 mph 1016.3mb 37f 35f
5:00 15 18 mph 1016.4mb 37f 35f
4:54 16 18 mph 1016.3mb 37f 35f
4:48 16 17 mph 1016.2mb 37f 34f
4:42 16 18 mph 1016.2mb 37f 34f
4:36 14 17 mph 1016.2mb 37f 34f
4:30 16 20 mph 1016.4mb 37f 34f
4:24 17 21 mph 1016.6mb 38f 34f
4:18 17 20 mph 1016.6mb 38f 35f
4:12 14 16 mph 1016.7mb 38f 34f
4:06 13 14 mph 1016.8mb 38f 34f
4:00 11 14 mph 1016.8mb 38f 33f
3:54 13 15 mph 1016.9mb 38f 33f
3:48 13 17 mph 1017.1mb 38f 33f
3:42 15 17 mph 1017.4mb 38f 33f
3:36 15 17 mph 1017.5mb 38f 33f
3:30 15 17 mph 1017.5mb 38f 33f
3:24 16 17 mph 1017.3mb 38f 33f
3:18 15 17 mph 1017.4mb 38f 33f
3:12 14 15 mph 1017.5mb 38f 33f
3:06 10 13 mph 1017.5mb 38f 33f
3:00 10 14 mph 1017.6mb 38f 33f
2:54 13 17 mph 1017.8mb 38f 33f
2:48 14 17 mph 1017.7mb 38f 33f
2:42 14 17 mph 1017.9mb 38f 33f
2:36 15 18 mph 1018.2mb 38f 33f
2:30 15 17 mph 1018.4mb 38f 33f
2:24 14 16 mph 1018.5mb 38f 33f
2:18 15 17 mph 1018.6mb 38f 33f
2:12 13 15 mph 1018.6mb 38f 33f
2:06 14 16 mph 1018.6mb 38f 34f
2:00 14 15 mph 1018.8mb 38f 34f
1:54 11 14 mph 1018.6mb 38f 34f
1:48 11 14 mph 1018.7mb 38f 34f
1:42 11 14 mph 1018.7mb 38f 34f
1:36 11 14 mph 1018.8mb 38f 34f
1:30 13
mph
1018.7mb 38f 34f
1:24 11 14 mph 1018.7mb 38f 34f
1:18 11 14 mph 1018.7mb 38f 34f
1:12 11 15 mph 1018.9mb 38f 34f
1:06 13 15 mph 1019.1mb 38f 34f
1:00 13 15 mph 1019.2mb 38f 34f
12:54 13 16 mph 1019.5mb 38f 34f
12:48 13 15 mph 1019.5mb 38f 34f
12:42 11 14 mph 1019.5mb 38f 33f
12:36 11 14 mph 1019.5mb 38f 33f
12:30 10 14 mph 1019.5mb 38f 33f
12:24 11 14 mph 1019.6mb 38f 33f
12:18 14
mph
1019.8mb 38f 33f
12:12 13 15 mph 1019.6mb 38f 33f
12:06 14 15 mph 1019.5mb 38f 33f
12:00 13 15 mph 1019.4mb 38f 33f
dom 03/29 11:54 14 16 mph 1019.4mb 38f 33f
11:48 14 16 mph 1019.5mb 38f 33f
11:42 11 15 mph 1019.5mb 38f 33f
11:36 13 15 mph 1019.7mb 38f 33f
11:30 13 14 mph 1019.8mb 38f 33f
11:24 13 14 mph 1019.7mb 38f 33f
11:18 13 15 mph 1019.7mb 38f 34f
11:12 14 15 mph 1019.7mb 38f 34f
11:06 14 16 mph 1019.5mb 38f 34f
11:00 16 17 mph 1019.5mb 38f 34f
10:54 15 16 mph 1019.6mb 38f 34f
10:48 13 14 mph 1019.5mb 38f 34f
10:42 13 14 mph 1019.6mb 38f 34f
10:36 10 11 mph 1019.5mb 38f 34f
10:30 9 11 mph 1019.7mb 38f 34f
10:24 9 11 mph 1020mb 38f 34f
10:18 11 14 mph 1020.1mb 38f 34f
10:12 11 14 mph 1020.3mb 38f 34f
10:06 13 15 mph 1020.4mb 38f 35f
10:00 13 15 mph 1020.5mb 38f 35f
9:54 13 15 mph 1020.5mb 38f 35f
9:48 13 16 mph 1020.6mb 38f 35f
9:42 14 15 mph 1020.7mb 38f 35f
9:36 13 16 mph 1020.7mb 38f 35f
9:30 13 16 mph 1020.7mb 38f 35f
9:24 14
mph
1020.8mb 38f 35f
9:18 13 14 mph 1020.8mb 38f 35f
9:12 11 13 mph 1020.6mb 38f 35f
9:06 11 13 mph 1020.7mb 38f 35f
9:00 14 16 mph 1020.7mb 38f 35f
8:54 15 17 mph 1020.7mb 38f 36f
8:48 16 18 mph 1020.6mb 38f 36f
8:42 17 18 mph 1020.5mb 38f 36f
8:36 17 20 mph 1020.6mb 38f 36f
8:30 18 20 mph 1020.6mb 38f 37f
8:24 17 18 mph 1020.5mb 38f 37f
8:18 17 20 mph 1020.5mb 38f 37f
8:12 16 18 mph 1020.5mb 38f 37f
8:06 17 18 mph 1020.5mb 38f 36f
8:00 15 17 mph 1020.5mb 38f 37f
7:54 16 17 mph 1020.5mb 38f 36f
7:48 15 17 mph 1020.5mb 38f 36f
7:42 16 18 mph 1020.4mb 38f 36f
7:36 17 18 mph 1020.4mb 38f 36f
7:30 16 17 mph 1020.5mb 38f 37f
7:24 15 17 mph 1020.4mb 38f 37f
7:18 16 17 mph 1020.3mb 38f 36f
7:12 17 18 mph 1020.3mb 38f 36f
7:06 17 18 mph 1020.2mb 38f 36f
7:00 18 20 mph 1020.2mb 38f 36f
6:54 18 20 mph 1020.1mb 38f 36f
6:48 16 17 mph 1020.2mb 38f 37f
6:42 17 20 mph 1020.2mb 38f 36f
6:36 17 18 mph 1020.1mb 38f 37f
6:30 15 17 mph 1020.1mb 38f 37f
6:24 15 17 mph 1020mb 38f 37f
6:18 16 17 mph 1020mb 38f 37f
6:12 15 18 mph 1020.1mb 38f 37f
6:06 16 18 mph 1020.1mb 38f 37f
6:00 16 18 mph 1020mb 38f 37f
5:54 18 20 mph 1019.9mb 38f 37f
5:48 13 14 mph 1020mb 38f 38f
5:42 11 14 mph 1020mb 38f 39f
5:36 11 14 mph 1020mb 38f 39f
5:30 10 14 mph 1019.9mb 38f 39f
5:24 11 13 mph 1019.8mb 38f 39f
5:18 6
mph
1019.8mb 38f 40f
5:12 3 5 mph 1019.8mb 38f 41f
5:06 5 6 mph 1019.8mb 38f 40f
5:00 6 7 mph 1019.9mb 38f 39f
4:54 7 8 mph 1019.9mb 38f 39f
4:48 6 7 mph 1019.8mb 38f 39f
4:42 7
mph
1019.9mb 38f 39f
4:36 5 10 mph 1020mb 38f 39f
4:30 10 13 mph 1020mb 38f 38f
4:24 5 7 mph 1020mb 38f 39f
4:18 2 5 mph 1020mb 38f 40f
4:12 3 5 mph 1020.1mb 38f 43f
4:06 3 6 mph 1020.1mb 38f 41f
4:00 3
mph
1020.2mb 38f 44f
3:54 3 7 mph 1020.4mb 38f 43f
3:48 6 7 mph 1020.5mb 38f 43f
3:42 6 8 mph 1020.7mb 38f 40f
3:36 2 5 mph 1020.8mb 38f 41f
3:30 2 5 mph 1020.8mb 38f 41f
3:24 3 5 mph 1020.9mb 38f 40f
3:18 3 5 mph 1020.9mb 37f 42f
3:12 3 7 mph 1021mb 37f 42f
3:06 7 11 mph 1021mb 37f 41f
3:00 5 6 mph 1021mb 37f 42f
2:54 3 5 mph 1021.1mb 37f 43f
2:48 5 6 mph 1021.1mb 37f 41f
2:42 5 6 mph 1021.2mb 37f 41f
2:36 2 5 mph 1021.2mb 37f 42f
2:30 5 6 mph 1021.3mb 37f 40f
2:24 6 9 mph 1021.4mb 37f 40f
2:18 8 13 mph 1021.4mb 37f 39f
2:12 11 13 mph 1021.4mb 37f 39f
2:06 8 10 mph 1021.6mb 37f 39f
2:00 8 10 mph 1021.6mb 37f 39f
1:54 9 11 mph 1021.7mb 37f 37f
1:48 3 7 mph 1021.8mb 37f 37f
1:42 7 8 mph 1021.9mb 37f 38f
1:36 6 8 mph 1021.9mb 37f 39f
1:30 6 7 mph 1022mb 37f 38f
1:24 6 9 mph 1022.1mb 37f 38f
1:18 8 10 mph 1022.2mb 37f 37f
1:12 7 10 mph 1022.2mb 37f 37f
1:06 7 9 mph 1022.3mb 37f 35f
1:00 8 13 mph 1022.3mb 37f 35f
12:54 10 14 mph 1022.3mb 37f 35f
12:48 9 14 mph 1022.3mb 37f 34f
12:42 11 14 mph 1022.3mb 37f 34f
12:36 10 11 mph 1022.3mb 37f 34f
12:30 9 13 mph 1022.4mb 37f 33f
12:24 13 14 mph 1022.4mb 37f 33f
12:18 11 14 mph 1022.5mb 37f 34f
12:12 13 14 mph 1022.5mb 37f 33f
12:06 10 11 mph 1022.5mb 37f 33f
12:00 6 10 mph 1022.4mb 37f 35f
11:54 7 11 mph 1022.4mb 37f 34f
11:48 6 11 mph 1022.6mb 37f 36f
11:42 7 13 mph 1022.7mb 37f 35f
11:36 8 13 mph 1022.8mb 37f 35f
11:30 9 13 mph 1022.8mb 37f 32f
11:24 8 11 mph 1022.9mb 37f 34f
11:18 11 14 mph 1022.9mb 37f 34f
11:12 9 14 mph 1023mb 37f 34f
11:06 14 16 mph 1022.9mb 37f 33f
11:00 11 14 mph 1022.9mb 37f 32f
10:54 9 13 mph 1022.9mb 37f 34f
10:48 10 15 mph 1023mb 37f 33f
10:42 13 15 mph 1023mb 36f 31f
10:36 14 16 mph 1023mb 36f 32f
10:30 14 16 mph 1023mb 36f 32f
10:24 14 17 mph 1022.9mb 36f 31f
10:18 15 17 mph 1022.9mb 36f 32f
10:12 14 18 mph 1022.9mb 36f 32f
10:06 13 17 mph 1022.9mb 36f 32f
10:00 13 16 mph 1022.9mb 36f 32f
9:54 14 17 mph 1022.8mb 36f 31f
9:48 13 15 mph 1022.9mb 36f 31f
9:42 14 16 mph 1022.8mb 36f 30f
9:36 13 17 mph 1022.8mb 36f 29f
9:30 16 18 mph 1022.6mb 36f 29f
9:24 15 20 mph 1022.6mb 36f 29f
9:18 16 20 mph 1022.6mb 36f 29f
9:12 17 20 mph 1022.5mb 36f 29f
9:06 15 21 mph 1022.4mb 36f 28f
9:00 18 20 mph 1022.3mb 36f 28f
8:54 17 21 mph 1022.3mb 36f 28f
8:48 17 21 mph 1022.3mb 36f 28f
8:42 17 21 mph 1022.2mb 37f 28f
8:36 16 20 mph 1022.2mb 37f 28f
8:30 17 20 mph 1022mb 37f 28f
8:24 16 20 mph 1022mb 37f 28f
8:18 17 20 mph 1021.9mb 37f 28f
8:12 18 22 mph 1021.9mb 37f 28f
8:06 17 21 mph 1021.8mb 37f 27f
8:00 17 20 mph 1021.7mb 37f 27f
7:54 18 22 mph 1021.7mb 37f 27f
7:48 17 21 mph 1021.6mb 37f 27f
7:42  -  mph 1021.4mb 37f 27f
7:36  -  mph 1021.4mb 37f 27f
7:30  -  mph 1021.3mb 37f 27f
7:24  -  mph 1021.1mb - -
7:18  -  mph 1021mb 37f -
1:42 21 23 mph 1017.5mb 38f 28f
1:36 18 22 mph 1017.5mb 38f 29f
1:30 18 24 mph 1017.4mb 38f 29f
1:24 24 26 mph 1017.3mb 38f 30f
1:18 21 24 mph 1017.2mb 38f 30f
1:12 22 26 mph 1017.1mb 38f 30f
1:06 21 25 mph 1017.2mb 38f 30f
1:00 18 24 mph 1017.1mb 38f 30f
12:54 22 24 mph 1017mb 38f 30f
12:48 21 25 mph 1017mb 38f 30f
12:42 21 25 mph 1016.9mb 38f 30f
12:36 21 23 mph 1016.8mb 38f 30f
12:30 20 24 mph 1016.8mb 38f 31f
12:24 21 22 mph 1016.7mb 38f 31f
12:18 22 23 mph 1016.6mb 38f 31f
12:12 15 18 mph 1016.6mb 38f 32f
12:06 14 16 mph 1016.5mb 38f 32f
12:00 14 17 mph 1016.5mb 38f 32f
sáb 03/28 11:54 13 16 mph 1016.5mb 38f 32f
11:48 11 14 mph 1016.4mb 38f 32f
11:42 13 16 mph 1016.4mb 38f 32f
11:36 14 17 mph 1016.4mb 38f 32f
11:30 15 22 mph 1016.4mb 38f 32f
11:24 17 20 mph 1016.2mb 38f 32f
11:18 14 20 mph 1016.3mb 38f 32f
11:12 11 14 mph 1016.3mb 38f 32f
11:06 11 14 mph 1016.2mb 38f 33f
11:00 11 15 mph 1016.1mb 38f 33f
10:54 13 14 mph 1016mb 38f 33f
10:48 11 14 mph 1015.9mb 38f 33f
10:42 10 14 mph 1015.9mb 38f 33f
10:36 10 13 mph 1015.8mb 38f 33f
10:30 10 14 mph 1015.7mb 38f 33f
10:24 13 15 mph 1015.6mb 38f 33f
10:18 13 16 mph 1015.5mb 38f 33f
10:12 15 17 mph 1015.4mb 38f 33f
10:06 17 20 mph 1015.3mb 38f 33f
10:00 9 11 mph 1015.3mb 38f 32f
9:54 7 8 mph 1015.4mb 38f 33f
9:48 3
mph
1015.3mb 38f 32f
9:42 2 3 mph 1015.2mb 38f 32f
9:36 3 5 mph 1015.1mb 38f 33f
9:30 5
mph
1015mb 38f 33f
9:24 2 5 mph 1014.8mb 38f 33f
9:18 5
mph
1014.7mb 38f 33f
9:12 3
mph
1014.6mb 38f 33f
9:06 3 5 mph 1014.6mb 38f 33f
9:00 3 5 mph 1014.5mb 38f 33f
8:54 3 5 mph 1014.4mb 38f 33f
8:48 3 5 mph 1014.3mb 38f 33f
8:42 5 6 mph 1014.2mb 38f 33f
8:36 5 7 mph 1014mb 38f 33f
8:30 6 7 mph 1013.9mb 38f 33f
8:24 6 8 mph 1013.7mb 38f 33f
8:18 7 10 mph 1013.5mb 38f 33f
8:12 10 13 mph 1013.4mb 38f 33f
8:06 8 10 mph 1013.3mb 38f 33f
8:00 8 9 mph 1013.1mb 38f 33f
7:54 9 10 mph 1012.9mb 38f 33f
7:48 10 13 mph 1012.8mb 38f 33f
7:42 8 11 mph 1012.8mb 38f 33f
7:36 8 13 mph 1012.6mb 38f 33f
7:30 8 10 mph 1012.5mb 38f 33f
7:24 8 11 mph 1012.3mb 38f 33f
7:18 8 10 mph 1012.1mb 38f 34f
7:12 7 8 mph 1012mb 38f 34f
6:48 7 9 mph 1011.4mb 38f 34f
6:42 7 10 mph 1011.3mb 38f 34f
6:36 7 9 mph 1011.2mb 38f 34f
6:30 8 9 mph 1011mb 38f 34f
6:24 7 9 mph 1010.8mb 38f 34f
6:18 9 11 mph 1010.7mb 38f 34f
6:12 9 11 mph 1010.5mb 38f 34f
6:06 9 11 mph 1010.4mb 38f 34f
6:00 9 11 mph 1010.3mb 38f 34f
5:54 9 14 mph 1010.2mb 38f 34f
5:48 8 13 mph 1010.1mb 38f 34f
5:42 9 14 mph 1010mb 38f 34f
5:36 10 14 mph 1009.8mb 38f 34f
5:30 10 13 mph 1009.7mb 38f 34f
5:24 9 13 mph 1009.6mb 38f 35f
5:18 13 14 mph 1009.4mb 38f 34f
5:12 10 13 mph 1009.2mb 38f 34f
5:06 8 10 mph 1009.1mb 38f 34f
5:00 10 14 mph 1009mb 38f 34f
4:54 13 14 mph 1008.9mb 38f 34f
4:48 10 14 mph 1008.8mb 38f 35f
4:42 11 16 mph 1008.7mb 38f 35f
4:36 15 17 mph 1008.6mb 38f 35f
4:30 13 18 mph 1008.5mb 38f 35f
4:24 17 20 mph 1008.4mb 38f 35f
4:18 17 21 mph 1008.2mb 38f 35f
4:12 16 20 mph 1008.1mb 38f 35f
4:06 17 20 mph 1008mb 38f 35f
4:00 17 21 mph 1007.8mb 38f 35f
3:54 20 22 mph 1007.8mb 38f 35f
3:48 17 23 mph 1007.7mb 38f 35f
3:42 16 18 mph 1007.7mb 38f 35f
3:36 15 20 mph 1007.6mb 37f 35f
3:30 18 24 mph 1007.5mb 37f 35f
3:24 18 22 mph 1007.2mb 37f 35f
3:18 17 21 mph 1007.1mb 37f 35f
3:12 18 23 mph 1007mb 37f 35f
3:06 21 23 mph 1006.9mb 37f 35f
3:00 16 22 mph 1007mb 37f 35f
2:54 15 18 mph 1007mb 37f 35f
2:48 15 20 mph 1006.9mb 37f 35f
2:42 16 20 mph 1006.9mb 38f 35f
2:36 16 20 mph 1006.9mb 38f 34f
2:30 11 16 mph 1006.9mb 38f 35f
2:24 14 21 mph 1006.8mb 38f 34f
2:18 16 24 mph 1006.9mb 38f 34f
2:12 15 21 mph 1006.8mb 38f 35f
2:06 16 23 mph 1006.8mb 38f 35f
2:00 17 22 mph 1006.7mb 38f 35f
1:54 18 22 mph 1006.7mb 38f 35f
1:48 21 29 mph 1006.7mb 39f 35f
1:42 16 24 mph 1006.7mb 39f 34f
1:36 16 20 mph 1006.7mb 39f 35f
1:30 17 21 mph 1006.7mb 39f 34f
1:24 16 24 mph 1006.8mb 39f 34f
1:18 21 26 mph 1006.7mb 39f 34f
1:12 22 26 mph 1006.6mb 39f 34f
1:06 18 24 mph 1006.7mb 39f 34f
1:00 18 22 mph 1006.8mb 39f 35f
12:54 16 21 mph 1006.8mb 39f 35f
12:48 18 23 mph 1006.8mb 39f 35f
12:42 17 24 mph 1006.8mb 39f 35f
12:36 20 25 mph 1006.7mb 39f 35f
12:30 17 20 mph 1006.7mb 39f 35f
12:24 17 23 mph 1006.8mb 39f 35f
12:18 21 25 mph 1006.7mb 39f 35f
12:12 20 29 mph 1006.6mb 39f 35f
12:06 18 25 mph 1006.6mb 39f 35f
12:00 18 23 mph 1006.7mb 39f 35f
11:54 16 22 mph 1006.7mb 39f 35f
11:48 20 26 mph 1006.8mb 39f 35f
11:42 21 25 mph 1006.7mb 39f 35f
11:36 22 24 mph 1006.7mb 39f 35f
11:30 20 23 mph 1006.6mb 39f 35f
11:24 15 18 mph 1006.8mb 39f 35f
11:18 16 18 mph 1006.8mb 39f 35f
11:12 16 23 mph 1006.9mb 39f 35f
11:06 22 26 mph 1006.8mb 39f 35f
11:00 15 22 mph 1007mb 39f 35f
10:54 17 20 mph 1007.1mb 39f 35f
10:48 18 21 mph 1007mb 39f 35f
10:42 16 20 mph 1006.8mb 39f 36f
10:36 17 21 mph 1006.7mb 39f 35f
10:30 16 20 mph 1006.8mb 39f 35f
10:24 15 18 mph 1006.6mb 39f 35f
10:18 18 22 mph 1006.7mb 39f 36f
10:12 16 20 mph 1006.7mb 39f 35f
10:06 16 20 mph 1006.8mb 39f 36f
10:00 15 18 mph 1006.8mb 39f 36f
9:54 15 21 mph 1006.9mb 39f 36f
9:48 16 20 mph 1007mb 39f 36f
9:42 13 15 mph 1007mb 39f 36f
9:36 14 17 mph 1006.8mb 39f 36f
9:30 14 18 mph 1006.5mb 39f 36f
9:24 15 21 mph 1006.1mb 39f 36f
9:18 17 23 mph 1005.6mb 39f 35f
9:12 16 20 mph 1005.9mb 39f 35f
9:06 15 17 mph 1005.8mb 39f 35f
9:00 14 17 mph 1005.8mb 39f 35f
8:54 14 17 mph 1005.9mb 39f 35f
8:48 16 18 mph 1005.7mb 39f 35f
8:42 15 18 mph 1005.9mb 40f 35f
8:36 15 20 mph 1005.8mb 40f 36f
8:30 14 18 mph 1005.8mb 40f 36f
8:24 15 18 mph 1005.8mb 40f 36f
8:18 14 17 mph 1005.8mb 40f 36f
8:12 14 17 mph 1005.9mb 40f 36f
8:06 14 18 mph 1005.9mb 40f 36f
8:00 15 17 mph 1006mb 40f 36f
7:54 15 18 mph 1005.8mb 40f 36f
7:48 15 17 mph 1005.9mb 40f 36f
7:42 15 16 mph 1006mb 40f 37f
7:36 15 18 mph 1006mb 40f 37f
7:30 15 18 mph 1005.9mb 40f 37f
7:24 14 17 mph 1005.9mb 40f 37f
7:18 14 16 mph 1005.7mb 40f 37f
7:12 13 15 mph 1005.6mb 40f 37f
7:06 11 14 mph 1005.6mb 40f 37f
7:00 10 14 mph 1005.5mb 40f 37f
6:54 10 11 mph 1005.5mb 40f 37f
6:48 9 11 mph 1005.6mb 40f 37f
6:42 9 13 mph 1005.5mb 40f 37f
6:36 9 10 mph 1005.3mb 40f 37f
6:30 8 10 mph 1005.4mb 39f 37f
6:24 9 10 mph 1005.4mb 39f 37f
6:18 9 11 mph 1005.6mb 39f 37f
6:12 10 13 mph 1005.4mb 39f 37f
6:06 9 11 mph 1005.6mb 39f 37f
6:00 10 11 mph 1005.5mb 39f 37f
5:54 10 11 mph 1005.4mb 39f 37f
5:48 9 11 mph 1005.3mb 39f 37f
5:42 9 10 mph 1005.6mb 38f 37f
5:36 8 10 mph 1005.6mb 38f 37f
5:30 8 10 mph 1005.3mb 38f 37f
5:24 9 10 mph 1005.4mb 38f 37f
5:18 9 10 mph 1005.3mb 38f 37f
5:12 8 10 mph 1005.5mb 38f 37f
5:06 8 9 mph 1005.6mb 38f 37f
5:00 7 9 mph 1005.5mb 38f 37f
4:54 8 10 mph 1005.3mb 38f 38f
4:48 9 10 mph 1005.4mb 38f 38f
4:42 8 11 mph 1005.5mb 38f 38f
4:36 8 9 mph 1005.6mb 38f 38f
4:30 8 9 mph 1005.6mb 38f 38f
4:24 7 9 mph 1005.7mb 38f 38f
4:18 7 8 mph 1005.8mb 37f 38f
4:12 7 8 mph 1005.9mb 37f 38f
4:06 6 7 mph 1005.9mb 37f 38f
4:00 6 7 mph 1006.1mb 37f 38f
3:54 7 10 mph 1006.1mb 37f 38f
3:48 9 13 mph 1006.1mb 37f 38f
3:42 11 15 mph 1005.9mb 37f 38f
3:36 9 11 mph 1006.1mb 37f 38f
3:30 5 6 mph 1006.2mb 37f 38f
3:24 3 6 mph 1006mb 37f 38f
3:18 6 8 mph 1005.9mb 37f 38f
3:12 7 9 mph 1006.1mb 37f 38f
3:06 8 10 mph 1006.1mb 37f 39f
3:00 9
mph
1006.2mb 37f 39f
2:54 8
mph
1006.4mb 37f 38f
2:48 8 9 mph 1006.3mb 37f 38f
2:42 8
mph
1006.3mb 37f 38f
2:36 6
mph
1006.7mb 37f 38f
2:30 3 5 mph 1006.8mb 37f 38f
2:24 3 5 mph 1006.8mb 37f 38f
2:18 5 6 mph 1006.8mb 37f 38f
2:12 3 5 mph 1006.8mb 37f 38f
2:06 1 2 mph 1006.9mb 37f 38f
2:00 2 3 mph 1006.8mb 37f 38f
1:54 3 6 mph 1006.9mb 37f 38f
1:48 5
mph
1006.7mb 38f 38f
1:42 5 6 mph 1006.8mb 38f 39f
1:36 6
mph
1006.7mb 38f 39f
1:30 6
mph
1006.7mb 38f 39f
1:24 6
mph
1007mb 38f 39f
1:18 5
mph
1007.2mb 38f 39f
1:12 3 5 mph 1007.2mb 38f 39f
1:06 3 5 mph 1007.2mb 38f 39f
1:00 5
mph
1007.2mb 38f 39f
12:54 5
mph
1007mb 38f 39f
12:48 3 5 mph 1007.2mb 38f 39f
12:42 5
mph
1007.3mb 38f 39f
12:36 5
mph
1007.2mb 38f 39f
12:30 5
mph
1007mb 38f 39f
12:24 5
mph
1007.2mb 38f 38f
12:18 5
mph
1007.2mb 38f 39f
12:12 5
mph
1007.1mb 38f 39f
12:06 2
mph
1006.9mb 39f 39f
12:00 2
mph
1007.2mb 39f 39f
vie 03/27 11:54 1 2 mph 1007.4mb 39f 39f
11:48 2 3 mph 1007.3mb 39f 39f
11:42 2 3 mph 1007.3mb 39f 39f
11:36 2
mph
1007.4mb 39f 39f
11:30 2
mph
1007.5mb 39f 39f
11:24 2
mph
1007.7mb 39f 39f
11:18 2
mph
1007.7mb 39f 39f
11:12 1
mph
1007.6mb 39f 39f
11:06 1
mph
1007.5mb 39f 39f
11:00 1 2 mph 1007.2mb 39f 39f
10:54 1 2 mph 1006.9mb 39f 39f
10:48 2
mph
1006.9mb 39f 39f
10:42 2 3 mph 1006.8mb 39f 39f
10:36 1 2 mph 1007mb 39f 39f
10:30 1 3 mph 1007.5mb 39f 39f
10:24 3 5 mph 1007.9mb 39f 39f
10:18 3
mph
1008.1mb 39f 39f
10:12 3
mph
1007.8mb 39f 39f
10:06 3
mph
1007.8mb 39f 40f
10:00 3 5 mph 1008mb 39f 40f
9:54 3
mph
1007.9mb 39f 40f
9:48 3
mph
1007.8mb 39f 40f
9:42 3
mph
1007.5mb 39f 40f
9:36 2
mph
1007.5mb 39f 40f
9:30 2
mph
1007.3mb 39f 40f
9:24 2
mph
1007.4mb 39f 40f
9:18  -  mph 1007.2mb 39f 40f
9:12  -  1 mph 1007.5mb 39f 40f
9:06  -  2 mph 1007.2mb 40f 40f
9:00 1 2 mph 1007.3mb 40f 40f
8:54 2
mph
1007.3mb 40f 40f
8:48 1 2 mph 1007.2mb 40f 40f
8:42 2
mph
1007.5mb 40f 40f
8:36 2
mph
1007.7mb 40f 40f
8:30 2 3 mph 1007.4mb 40f 40f
8:24 3
mph
1006.7mb 40f 40f
8:18 3
mph
1006.8mb 40f 40f
8:12 3 6 mph 1007.2mb 40f 40f
8:06 6
mph
1006.9mb 40f 40f
8:00 6
mph
1006.7mb 40f 40f
7:54 5
mph
1007.1mb 40f 40f
7:48 5 6 mph 1006.6mb 40f 40f
7:42 5
mph
1006.5mb 40f 40f
7:36 6 7 mph 1006.3mb 40f 40f
7:30 7 8 mph 1006mb 40f 40f
7:24 7 8 mph 1005.9mb 40f 40f
7:18 6 7 mph 1006mb 41f 40f
7:12 6 7 mph 1006.1mb 41f 40f
7:06 7
mph
1005.9mb 41f 40f
7:00 6
mph
1006.3mb 41f 40f
6:54 5
mph
1006.4mb 41f 40f
6:48 5 6 mph 1006.7mb 41f 40f
6:42 3
mph
1006.9mb 41f 40f
6:36 2
mph
1007.1mb 40f 41f
6:30 2
mph
1007mb 41f 41f
6:24 3
mph
1006.8mb 41f 41f
6:18 3
mph
1006.7mb 41f 41f
6:12 2 3 mph 1006.8mb 41f 41f
6:06 2 5 mph 1006.7mb 41f 41f
6:00 3
mph
1006.5mb 41f 41f
5:54 2 3 mph 1006.5mb 41f 41f
5:48 2 3 mph 1006.2mb 41f 41f
5:42 2 6 mph 1006.3mb 41f 41f
5:36 6 7 mph 1005.7mb 41f 41f
5:30 6 7 mph 1005.5mb 41f 41f
5:24 6 7 mph 1005.6mb 41f 41f
5:18 6 7 mph 1006mb 40f 41f
5:06 8 10 mph 1005.8mb 40f 41f
5:00 9 10 mph 1005.8mb 40f 40f
4:54 9 10 mph 1005.8mb 40f 41f
4:48 11
mph
1005.8mb 40f 40f
4:42 10
mph
1005.9mb 40f 40f
4:36 9 10 mph 1006mb 40f 40f
4:30 8
mph
1006mb 40f 40f
4:24 7 8 mph 1005.7mb 40f 40f
4:18 8 9 mph 1005.5mb 40f 40f
4:12 9
mph
1005.4mb 40f 40f
4:06 9 10 mph 1005.5mb 40f 40f
4:00 9 10 mph 1005.5mb 40f 41f
3:54 8 9 mph 1005.4mb 39f 41f
3:48 8 9 mph 1005.4mb 39f 41f
3:42 9 11 mph 1005.5mb 39f 41f
3:36 10 13 mph 1005.4mb 39f 41f
3:30 10 11 mph 1005.5mb 39f 41f
3:24 10 11 mph 1005.5mb 39f 41f
3:18 11
mph
1005.5mb 39f 41f
3:12 10 13 mph 1005.5mb 39f 41f
3:06 10 11 mph 1005.4mb 39f 41f
3:00 9 10 mph 1005.3mb 39f 41f
2:54 7 9 mph 1005.2mb 39f 41f
2:48 6 10 mph 1005.3mb 39f 41f
2:42 9 11 mph 1005.1mb 38f 41f
2:36 10 11 mph 1005.3mb 38f 41f
2:30 9 10 mph 1005.3mb 38f 41f
2:24 9 11 mph 1005.4mb 38f 41f
2:18 9 13 mph 1005.4mb 38f 41f
2:12 11 14 mph 1005.3mb 38f 41f
2:06 10
mph
1005.4mb 38f 41f
2:00 10 11 mph 1005.6mb 38f 41f
1:54 9 11 mph 1005.6mb 38f 41f
1:48 9 14 mph 1005.4mb 38f 41f
1:42 11 13 mph 1005.3mb 38f 41f
1:36 11 14 mph 1005.5mb 38f 41f
1:30 13 15 mph 1005.5mb 38f 41f
1:24 14 15 mph 1005.4mb 38f 41f
1:18 13 15 mph 1005.5mb 38f 41f
1:12 13 15 mph 1005.4mb 39f 41f
1:06 11 13 mph 1005.1mb 39f 41f
1:00 10 11 mph 1005.3mb 40f 41f
12:54 9 13 mph 1005.2mb 40f 41f
12:48 10 13 mph 1005.1mb 40f 41f
12:42 9 10 mph 1005.3mb 40f 41f
12:36 8 13 mph 1005.1mb 40f 41f
12:30 8 11 mph 1005mb 41f 41f
12:24 7 11 mph 1005.4mb 41f 41f
12:18 9 10 mph 1005.5mb 41f 41f
12:12 8 10 mph 1005.6mb 41f 41f
12:06 8 10 mph 1005.6mb 41f 41f
12:00 9 10 mph 1005.7mb 41f 41f
11:54 9 11 mph 1005.8mb 41f 41f
11:48 9 10 mph 1005.9mb 41f 41f
11:42 8 9 mph 1005.9mb 41f 41f
11:36 8 9 mph 1006mb 41f 41f
11:30 8 10 mph 1006.1mb 41f 41f
11:24 8 10 mph 1006.2mb 41f 41f
11:18 7 9 mph 1005.9mb 41f 41f
11:12 8 9 mph 1005.9mb 41f 41f
11:06 8 9 mph 1006.2mb 41f 41f
11:00 8 10 mph 1006.5mb 41f 40f
10:54 8 10 mph 1006.3mb 41f 40f
10:48 8 10 mph 1006.3mb 41f 40f
10:42 8 10 mph 1006.6mb 41f 40f
10:36 6 10 mph 1006.6mb 41f 40f
10:30 9 13 mph 1006.6mb 41f 40f
10:24 8 14 mph 1006.2mb 41f 40f
10:18 14 15 mph 1005.8mb 41f 40f
10:12 9 13 mph 1006.1mb 41f 41f
10:06 9 14 mph 1006.2mb 41f 40f
10:00 10 14 mph 1006.2mb 41f 40f
9:54 10 15 mph 1006mb 41f 40f
9:48 13 15 mph 1006.1mb 41f 40f
9:42 11 14 mph 1006.3mb 41f 40f
9:36 11 15 mph 1006.2mb 41f 40f
9:30 13 15 mph 1006.3mb 41f 40f
9:24 13 15 mph 1006.2mb 41f 40f
9:18 14 16 mph 1005.9mb 41f 40f
9:12 13 14 mph 1006mb 41f 40f
9:06 11 14 mph 1005.9mb 41f 40f
9:00 10 16 mph 1006.1mb 41f 40f
8:54 15 17 mph 1006mb 41f 40f
8:48 14 18 mph 1006.1mb 41f 40f
8:42 15 17 mph 1006.2mb 41f 40f
8:36 15 17 mph 1006.2mb 41f 40f
8:30 13 15 mph 1006.4mb 41f 40f
8:24 14 17 mph 1006.5mb 41f 40f
8:18 14 16 mph 1006.3mb 41f 40f
8:12 13 16 mph 1006.5mb 41f 40f
8:06 13 16 mph 1006.6mb 41f 40f
8:00 15 17 mph 1006mb 41f 40f
7:54 14 17 mph 1006.2mb 41f 40f
7:48 14 17 mph 1006.5mb 41f 40f
7:42 15 18 mph 1006.4mb 41f 40f
7:36 15 18 mph 1006.4mb 41f 40f
7:30 16 20 mph 1006mb 41f 40f
7:24 16 18 mph 1005.8mb 41f 41f
7:18 16 18 mph 1006.4mb 41f 41f
7:12 15 20 mph 1006.1mb 41f 41f
7:06 17 22 mph 1006.1mb 41f 41f
7:00 18 22 mph 1005.7mb 41f 41f
6:54 15 17 mph 1006.1mb 41f 41f
6:48 14 15 mph 1006mb 41f 41f
6:42 13 15 mph 1005.9mb 41f 41f
6:36 15 16 mph 1005.2mb 41f 41f
6:30 15 18 mph 1005.3mb 41f 41f
6:24 10 13 mph 1005mb 41f 41f
6:18 11 14 mph 1005.2mb 41f 42f
6:12 14 18 mph 1004.8mb 41f 42f
6:06 16 18 mph 1004.2mb 41f 42f
6:00 16 18 mph 1004.5mb 41f 42f
5:54 10 14 mph 1004.6mb 41f 42f
5:48 13 15 mph - 41f 42f
5:42 11 16 mph - 41f 42f
5:36 14 16 mph - 40f 42f
5:30 13 16 mph 1003.8mb 40f 42f
5:24 13 16 mph 1003.7mb 40f 42f
5:18 14 16 mph 1003.6mb 40f 42f
5:12 13 15 mph 1003.5mb 40f 42f
5:06 14 16 mph 1003.3mb 40f 42f
5:00 10 13 mph 1003.7mb - -
4:54 10 15 mph 1003.9mb - -
4:48 9 11 mph 1003.7mb 40f 42f
4:42 9 13 mph 1003.6mb 40f 42f
4:36 10 13 mph 1003.6mb 40f 42f
4:30 11 15 mph 1003.8mb 40f 42f
4:24 13 17 mph 1003.7mb 40f 42f
4:18 14 16 mph 1004.1mb 40f 42f